Santa Ysabel, CA

10:36 PM PDT on September 18, 2014 (GMT -0700)
McClellan-Palomar | Change Station
CLOSE
Current Station
Airport
Location: Carlsbad,
Elevation: 328 ft
Nearby Weather Stations

Elev 328 ft 33.13 °N, 117.28 °W | Updated 43 minutes ago

Partly Cloudy
Partly Cloudy
71 °F
Feels Like 71 °F
N
0
Wind Variable Wind from North

Today
High -- | Low -- °F
--% Chance of Precip.
Yesterday
High -- | Low -- °F
Precip. -- in
6:32 AM 6:48 PM
Waning Crescent, 21% visible
Pressure 29.86 in
Visibility 10.0 miles
Clouds Overcast 1300 ft
Dew Point 64 °F
Humidity 78%
Rainfall 0.00 in
Snow Depth 1 in , 0 in , 0 in
UV 0 out of 12
Pollen 6.10 out of 12
Air Quality Not available.
Flu Activity Not available.
METAR KCRQ 190453Z AUTO 00000KT 10SM OVC013 22/18 A2987 RMK AO2 SLP109 T02170178 TSNO

More Conditions Fewer Conditions

Pressure 29.86 in
Visibility 10.0 miles
Clouds Overcast 1300 ft
Dew Point 64 °F
Humidity 78%
Rainfall 0.00 in
Snow Depth 1 in , 0 in , 0 in
UV 0 out of 12
Pollen 6.10 out of 12
Air Quality Not available.
Flu Activity Not available.
METAR KCRQ 190453Z AUTO 00000KT 10SM OVC013 22/18 A2987 RMK AO2 SLP109 T02170178 TSNO

More Conditions Fewer Conditions

10-Day Weather Forecast

Almanac

Astronomy

Sep. 18, 2014 Rise Set
Actual Time 6:32 AM PDT 6:48 PM PDT
Civil Twilight 6:07 AM PDT 7:13 PM PDT
Nautical Twilight 5:38 AM PDT 7:42 PM PDT
Astronomical Twilight 5:09 AM PDT 8:11 PM PDT
Moon 1:40 AM PDT (9/18) 3:32 PM PDT (9/18)
Length of Visible Light 13h 05m
Length of Day
12h 16m
Tomorrow will be 2m 1s shorter.
Waning Crescent, 21% of the Moon is Illuminated
Sep 19
Waning Crescent
Sep 24
New
Oct 1
First Quarter
Oct 8
Full
Oct 15
Last Quarter

Yesterday's Extremes

State Highs State Lows

Community

WunderPhotos

Upload Photos

1,754,573 photos uploaded!

Nearby

Snow Depth

Station Depth Elevation
Spratt Creek 1 in 6200 ft
Burnside Lake 0 in 8139 ft
Hagan's Meadow 0 in 8000 ft
Tahoe City Cross 0 in 6750 ft
Squaw Valley 0 in 8200 ft

Earthquake Activity

City Distance Mag. Time & Date
La Quinta, California 29 miles 2.7 8:59 PM PDT
2014-09-15
Minimum magnitude displayed is 2.5.

Coastal Water Temperatures

Place Temperature
No Stations Reporting

Nearby Weather Stations